Aviation Digital Data Service (ADDS)

Output produced by METARs form (0549 UTC 18 March 2018)
found at http://aviationweather.gov/adds/metars/
METAR text: KMYV 180453Z AUTO 14006KT 10SM CLR 07/03 A3008 RMK AO2 SLP188 T00720033
Conditions at: KMYV (MARYSVILLE , CA, US) observed 0453 UTC 18 March 2018
Temperature: 7.2°C (45°F)
Dewpoint: 3.3°C (38°F) [RH = 76%]
Pressure (altimeter): 30.08 inches Hg (1018.7 mb)
[Sea-level pressure: 1018.8 mb]
Winds: from the SE (140 degrees) at 7 MPH (6 knots; 3.1 m/s)
Visibility: 10 or more miles (16+ km)
Ceiling: at least 12,000 feet AGL
Clouds: sky clear below 12,000 feet AGL
Weather: automated observation with no human augmentation;
there may or may not be significant weather present at this time